KGVL

Lee Gilmer Memorial Airport

Gainesville, Georgia, USA
METAR KGVL 171621Z AUTO 26008KT 10SM SCT023 SCT042 BKN060 27/22 A3021 RMK AO2 T02720222
Observed Flight Rules
Aug-17 @ 16:21 UTC (31 minutes ago) Visual Flight Rules
Wind Visibility Clouds
260° at 8 knots 10 miles
  • Scattered at 2,300' AGL
  • Scattered at 4,200' AGL
  • Broken at 6,000' AGL
Temperatures Readings
Current 27°C / 81°F
Dewpoint 22°C / 72°F
Humidity 74%
Altimeter 30.21" Hg
Pressure 1023 hPa
Elevation 386
METAR KGVL 171621Z AUTO 26008KT 10SM SCT023 SCT042 BKN060 27/22 A3021 RMK AO2 T02720222
Observed Flight Rules
Aug-17 @ 16:21 UTC
(31 minutes ago)
VFR
Wind Visibility
260° at 8 knots 10 miles
Clouds
  • Scattered at 2,300' AGL
  • Scattered at 4,200' AGL
  • Broken at 6,000' AGL
Temperature Dewpoint
27°C / 81°F 22°C / 72°F
Humidity Altimeter Pressure
74% 30.21" Hg 1023 hPa